createdAt,value
2019-05-25T00:01:17.184Z,76.60
2019-05-25T00:03:46.919Z,75.60
2019-05-25T00:06:16.603Z,75.10
2019-05-25T00:08:46.340Z,75.30
2019-05-25T00:11:16.025Z,74.50
2019-05-25T00:13:46.821Z,74.30
2019-05-25T00:16:16.571Z,74.90
2019-05-25T00:18:46.281Z,75.10
2019-05-25T00:21:16.017Z,74.80
2019-05-25T00:23:45.726Z,75.60
2019-05-25T00:26:15.412Z,75.60
2019-05-25T00:28:45.148Z,75.50
2019-05-25T00:31:14.830Z,75.80
2019-05-25T00:33:44.545Z,77.30
2019-05-25T00:36:14.278Z,76.10
2019-05-25T00:38:43.988Z,75.60
2019-05-25T00:41:13.703Z,76.60
2019-05-25T00:43:44.411Z,77.30
2019-05-25T00:46:14.041Z,77.40
2019-05-25T00:48:45.479Z,76.40
2019-05-25T00:51:17.006Z,78.90
2019-05-25T00:53:46.322Z,79.10
2019-05-25T00:56:16.029Z,79.90
2019-05-25T00:58:46.735Z,79.50
2019-05-25T01:01:16.398Z,79.10
2019-05-25T01:03:46.107Z,79.20
2019-05-25T01:06:15.791Z,79.80
2019-05-25T01:08:45.538Z,80.10
2019-05-25T01:11:15.136Z,79.70
2019-05-25T01:13:44.827Z,81.70
2019-05-25T01:16:14.539Z,81.10
2019-05-25T01:18:45.997Z,81.30
2019-05-25T01:21:15.616Z,81.60
2019-05-25T01:23:45.325Z,81.80
2019-05-25T01:26:15.039Z,82.40
2019-05-25T01:28:45.768Z,82.40
2019-05-25T01:31:15.478Z,82.10
2019-05-25T01:33:46.295Z,82.40
2019-05-25T01:36:16.022Z,81.90
2019-05-25T01:38:45.735Z,81.40
2019-05-25T01:41:15.447Z,80.60
2019-05-25T01:43:45.160Z,79.40
2019-05-25T01:46:14.865Z,79.10
2019-05-25T01:48:44.553Z,78.50
2019-05-25T01:51:15.262Z,78.70
2019-05-25T01:53:44.920Z,78.10
2019-05-25T01:56:14.599Z,77.80
2019-05-25T01:58:44.236Z,77.40
2019-05-25T02:01:13.948Z,75.30
2019-05-25T02:03:43.655Z,74.80
2019-05-25T02:06:13.367Z,73.80
2019-05-25T02:08:43.079Z,73.70
2019-05-25T02:11:12.684Z,73.20
2019-05-25T02:13:44.128Z,74.00
2019-05-25T02:16:15.515Z,73.10
2019-05-25T02:18:45.850Z,73.70
2019-05-25T02:21:15.621Z,73.90
2019-05-25T02:23:45.331Z,74.10
2019-05-25T02:26:15.002Z,74.00
2019-05-25T02:28:44.752Z,75.40
2019-05-25T02:31:14.461Z,76.50
2019-05-25T02:33:44.142Z,76.80
2019-05-25T02:36:13.855Z,76.40
2019-05-25T02:38:43.563Z,76.80
2019-05-25T02:41:14.196Z,76.70
2019-05-25T02:43:44.036Z,77.20
2019-05-25T02:46:15.434Z,78.00
2019-05-25T02:48:45.098Z,78.20
2019-05-25T02:51:14.774Z,77.10
2019-05-25T02:53:46.442Z,76.80
2019-05-25T02:56:15.867Z,76.20
2019-05-25T02:58:45.573Z,75.70
2019-05-25T03:01:15.284Z,76.00
2019-05-25T03:03:44.994Z,75.80
2019-05-25T03:06:17.147Z,75.60
2019-05-25T03:08:47.079Z,75.30
2019-05-25T03:11:16.862Z,76.80
2019-05-25T03:13:46.497Z,76.90
2019-05-25T03:16:16.180Z,76.70
2019-05-25T03:18:45.893Z,76.40
2019-05-25T03:21:15.599Z,76.70
2019-05-25T03:23:45.339Z,77.50
2019-05-25T03:26:16.011Z,77.00
2019-05-25T03:28:45.681Z,76.90
2019-05-25T03:31:16.353Z,76.60
2019-05-25T03:33:46.126Z,76.60
2019-05-25T03:36:17.546Z,76.40
2019-05-25T03:38:47.146Z,75.90
2019-05-25T03:41:16.791Z,74.90
2019-05-25T03:43:46.501Z,75.80
2019-05-25T03:46:16.108Z,76.10
2019-05-25T03:48:45.819Z,76.00
2019-05-25T03:51:15.430Z,76.70
2019-05-25T03:53:45.137Z,77.40
2019-05-25T03:56:14.725Z,77.70
2019-05-25T03:58:44.458Z,76.90
2019-05-25T04:01:14.165Z,77.00
2019-05-25T04:03:43.881Z,78.00
2019-05-25T04:06:13.584Z,79.20
2019-05-25T04:08:44.156Z,79.60
2019-05-25T04:11:13.796Z,79.90
2019-05-25T04:13:43.539Z,79.30
2019-05-25T04:16:13.245Z,79.20
2019-05-25T04:18:42.954Z,78.50
2019-05-25T04:21:12.639Z,78.70
2019-05-25T04:23:42.376Z,79.60
2019-05-25T04:26:21.988Z,79.00
2019-05-25T04:28:44.469Z,78.70
2019-05-25T04:31:14.168Z,76.90
2019-05-25T04:33:43.882Z,77.00
2019-05-25T04:36:13.597Z,77.60
2019-05-25T04:38:43.203Z,78.50
2019-05-25T04:41:12.906Z,78.50
2019-05-25T04:43:42.588Z,78.90
2019-05-25T04:46:12.326Z,78.30
2019-05-25T04:48:42.037Z,78.30
2019-05-25T04:51:11.746Z,78.00
2019-05-25T04:53:41.457Z,77.90
2019-05-25T04:56:12.143Z,77.80
2019-05-25T04:58:41.799Z,77.70
2019-05-25T05:01:11.483Z,77.20
2019-05-25T05:03:41.243Z,75.40
2019-05-25T05:06:10.931Z,75.30
2019-05-25T05:08:40.537Z,74.40
2019-05-25T05:11:10.221Z,73.60
2019-05-25T05:13:40.878Z,72.40
2019-05-25T05:16:10.590Z,71.20
2019-05-25T05:18:40.299Z,70.60
2019-05-25T05:21:10.013Z,70.20
2019-05-25T05:23:39.721Z,69.80
2019-05-25T05:26:09.401Z,70.90
2019-05-25T05:28:39.139Z,69.00
2019-05-25T05:31:22.682Z,69.90
2019-05-25T05:33:41.927Z,68.20
2019-05-25T05:36:13.277Z,68.60
2019-05-25T05:38:44.715Z,68.90
2019-05-25T05:41:15.297Z,67.00
2019-05-25T05:43:45.080Z,65.70
2019-05-25T05:46:14.763Z,66.00
2019-05-25T05:48:44.502Z,66.50
2019-05-25T05:51:14.593Z,67.40
2019-05-25T05:53:44.718Z,67.70
2019-05-25T05:56:14.451Z,67.00
2019-05-25T05:58:44.160Z,65.60
2019-05-25T06:01:13.911Z,64.30
2019-05-25T06:03:43.789Z,66.20
2019-05-25T06:06:13.496Z,64.90
2019-05-25T06:08:43.178Z,65.80
2019-05-25T06:11:12.891Z,62.90
2019-05-25T06:13:42.627Z,63.20
2019-05-25T06:16:12.338Z,62.20
2019-05-25T06:18:42.048Z,61.80
2019-05-25T06:21:11.758Z,63.60
2019-05-25T06:23:41.467Z,62.40
2019-05-25T06:26:12.125Z,60.80
2019-05-25T06:28:41.809Z,62.00
2019-05-25T06:31:11.523Z,59.70
2019-05-25T06:33:41.231Z,59.60
2019-05-25T06:36:10.939Z,56.50
2019-05-25T06:38:40.653Z,55.70
2019-05-25T06:41:10.333Z,56.10
2019-05-25T06:43:39.978Z,57.20
2019-05-25T06:46:09.680Z,59.40
2019-05-25T06:48:39.287Z,59.40
2019-05-25T06:51:08.998Z,58.20
2019-05-25T06:53:39.654Z,58.80
2019-05-25T06:56:09.442Z,56.40
2019-05-25T06:58:39.152Z,55.30
2019-05-25T07:01:08.860Z,56.30
2019-05-25T07:03:38.468Z,54.50
2019-05-25T07:06:08.177Z,54.70
2019-05-25T07:08:37.888Z,55.00
2019-05-25T07:11:07.574Z,54.30
2019-05-25T07:13:37.310Z,53.90
2019-05-25T07:16:06.918Z,54.40
2019-05-25T07:18:36.600Z,53.80
2019-05-25T07:21:06.336Z,53.40
2019-05-25T07:23:36.047Z,54.90
2019-05-25T07:26:05.758Z,54.20
2019-05-25T07:28:35.467Z,56.60
2019-05-25T07:31:05.177Z,57.40
2019-05-25T07:33:34.859Z,56.10
2019-05-25T07:36:07.475Z,54.60
2019-05-25T07:38:35.947Z,52.50
2019-05-25T07:41:05.731Z,51.50
2019-05-25T07:43:35.468Z,51.70
2019-05-25T07:46:05.182Z,51.20
2019-05-25T07:48:34.889Z,53.60
2019-05-25T07:51:06.599Z,53.00
2019-05-25T07:53:36.230Z,51.30
2019-05-25T07:56:05.968Z,51.50
2019-05-25T07:58:35.679Z,51.20
2019-05-25T08:01:05.386Z,52.30
2019-05-25T08:03:35.067Z,54.10
2019-05-25T08:06:04.781Z,53.70
2019-05-25T08:08:34.516Z,53.20
2019-05-25T08:11:05.164Z,53.20
2019-05-25T08:13:34.728Z,50.60
2019-05-25T08:16:04.467Z,52.10
2019-05-25T08:18:35.098Z,50.60
2019-05-25T08:21:04.783Z,51.80
2019-05-25T08:23:34.517Z,51.10
2019-05-25T08:26:04.227Z,50.80
2019-05-25T08:28:33.910Z,56.80
2019-05-25T08:31:03.669Z,53.70
2019-05-25T08:33:33.461Z,54.70
2019-05-25T08:36:03.143Z,54.00
2019-05-25T08:38:32.883Z,53.60
2019-05-25T08:41:02.563Z,53.00
2019-05-25T08:43:32.301Z,53.40
2019-05-25T08:46:03.937Z,50.90
2019-05-25T08:48:33.331Z,52.80
2019-05-25T08:51:02.940Z,48.50
2019-05-25T08:53:41.580Z,46.60
2019-05-25T08:56:03.925Z,44.70
2019-05-25T08:58:47.470Z,48.10
2019-05-25T09:01:04.982Z,45.20
2019-05-25T09:03:34.693Z,46.10
2019-05-25T09:06:04.403Z,44.20
2019-05-25T09:08:34.139Z,42.80
2019-05-25T09:11:03.824Z,46.30
2019-05-25T09:13:33.431Z,47.90
2019-05-25T09:16:03.118Z,47.70
2019-05-25T09:18:32.831Z,45.70
2019-05-25T09:21:03.538Z,47.70
2019-05-25T09:23:33.196Z,48.70
2019-05-25T09:26:02.876Z,46.60
2019-05-25T09:28:32.616Z,45.50
2019-05-25T09:31:02.340Z,44.70
2019-05-25T09:33:32.034Z,44.80
2019-05-25T09:36:01.715Z,45.40
2019-05-25T09:38:31.353Z,42.00
2019-05-25T09:41:01.339Z,39.50
2019-05-25T09:43:33.871Z,41.80
2019-05-25T09:46:03.364Z,39.10
2019-05-25T09:48:33.281Z,43.70
2019-05-25T09:51:03.019Z,40.70
2019-05-25T09:53:32.787Z,40.90
2019-05-25T09:56:02.498Z,38.80
2019-05-25T09:58:33.231Z,37.30
2019-05-25T10:01:02.944Z,41.40
2019-05-25T10:03:32.652Z,42.20
2019-05-25T10:06:10.716Z,43.50
2019-05-25T10:08:33.712Z,43.10
2019-05-25T10:11:03.420Z,42.20
2019-05-25T10:13:33.134Z,40.90
2019-05-25T10:16:02.846Z,41.40
2019-05-25T10:18:32.538Z,43.20
2019-05-25T10:21:02.232Z,41.20
2019-05-25T10:23:31.971Z,40.50
2019-05-25T10:26:01.684Z,41.80
2019-05-25T10:28:31.393Z,42.80
2019-05-25T10:31:01.103Z,41.70
2019-05-25T10:33:30.933Z,42.10
2019-05-25T10:36:02.958Z,42.70
2019-05-25T10:38:32.587Z,42.40
2019-05-25T10:41:02.299Z,40.00
2019-05-25T10:43:31.986Z,41.10
2019-05-25T10:46:02.659Z,40.00
2019-05-25T10:48:32.354Z,39.90
2019-05-25T10:51:02.044Z,40.80
2019-05-25T10:53:32.794Z,41.30
2019-05-25T10:56:02.505Z,41.40
2019-05-25T10:58:32.112Z,41.40
2019-05-25T11:01:01.823Z,42.50
2019-05-25T11:03:31.432Z,41.90
2019-05-25T11:06:01.111Z,41.60
2019-05-25T11:08:31.859Z,40.10
2019-05-25T11:11:01.555Z,42.20
2019-05-25T11:13:31.293Z,38.70
2019-05-25T11:16:02.803Z,39.50
2019-05-25T11:21:06.087Z,40.10
2019-05-25T11:23:35.821Z,42.30
2019-05-25T11:26:05.429Z,44.20
2019-05-25T11:28:35.140Z,43.10
2019-05-25T11:31:04.851Z,43.00
2019-05-25T11:33:36.442Z,38.90
2019-05-25T11:36:05.807Z,35.10
2019-05-25T11:38:35.419Z,38.30
2019-05-25T11:41:05.127Z,37.20
2019-05-25T11:43:34.835Z,33.60
2019-05-25T11:46:04.647Z,33.40
2019-05-25T11:48:34.422Z,33.10
2019-05-25T11:51:04.174Z,34.00
2019-05-25T11:53:33.878Z,34.90
2019-05-25T11:56:03.460Z,34.30
2019-05-25T11:58:46.562Z,35.40
2019-05-25T12:01:04.751Z,36.10
2019-05-25T12:03:34.360Z,39.80
2019-05-25T12:06:04.069Z,41.10
2019-05-25T12:08:33.649Z,40.70
2019-05-25T12:11:03.386Z,44.30
2019-05-25T12:13:33.096Z,44.00
2019-05-25T12:16:02.880Z,44.90
2019-05-25T12:18:32.491Z,42.20
2019-05-25T12:21:02.244Z,39.80
2019-05-25T12:23:32.887Z,40.90
2019-05-25T12:26:02.642Z,41.50
2019-05-25T12:28:32.381Z,40.90
2019-05-25T12:31:02.097Z,41.40
2019-05-25T12:33:31.802Z,39.20
2019-05-25T12:36:01.511Z,37.20
2019-05-25T12:38:31.225Z,36.40
2019-05-25T12:41:02.655Z,37.40
2019-05-25T12:43:32.253Z,36.80
2019-05-25T12:49:51.304Z,36.40
2019-05-25T12:52:21.184Z,38.60
2019-05-25T12:54:50.890Z,36.30
2019-05-25T12:57:22.348Z,35.00
2019-05-25T12:59:51.950Z,34.70
2019-05-25T13:02:21.660Z,35.60
2019-05-25T13:04:53.137Z,36.00
2019-05-25T13:07:23.002Z,35.00
2019-05-25T13:09:54.459Z,35.20
2019-05-25T13:12:24.086Z,35.40
2019-05-25T13:14:53.768Z,33.10
2019-05-25T13:17:24.466Z,35.80
2019-05-25T13:19:55.190Z,37.30
2019-05-25T13:22:25.795Z,34.90
2019-05-25T13:24:55.475Z,35.40
2019-05-25T13:27:25.184Z,38.30
2019-05-25T13:29:54.924Z,38.00
2019-05-25T13:32:24.530Z,37.50
2019-05-25T13:34:55.266Z,40.40
2019-05-25T13:37:24.949Z,39.30
2019-05-25T13:39:54.686Z,39.10
2019-05-25T13:42:24.394Z,40.50
2019-05-25T13:44:54.105Z,41.20
2019-05-25T13:47:24.786Z,39.80
2019-05-25T13:49:54.556Z,39.20
2019-05-25T13:52:24.258Z,42.30
2019-05-25T13:54:53.969Z,42.70
2019-05-25T13:57:25.393Z,40.50
2019-05-25T13:59:55.130Z,40.50
2019-05-25T14:02:24.842Z,42.00
2019-05-25T14:04:56.254Z,41.20
2019-05-25T14:07:26.001Z,48.80
2019-05-25T14:09:56.632Z,47.10
2019-05-25T14:12:28.040Z,42.80
2019-05-25T14:14:57.695Z,46.00
2019-05-25T14:17:27.377Z,44.70
2019-05-25T14:19:57.085Z,46.00
2019-05-25T14:22:28.623Z,44.20
2019-05-25T14:24:58.244Z,41.40
2019-05-25T14:27:28.963Z,45.00
2019-05-25T14:29:58.615Z,41.30
2019-05-25T14:32:28.324Z,43.50
2019-05-25T14:34:58.035Z,43.60
2019-05-25T14:37:27.747Z,42.40
2019-05-25T14:39:57.454Z,42.50
2019-05-25T14:42:27.172Z,43.80
2019-05-25T14:44:56.848Z,44.50
2019-05-25T14:47:26.585Z,46.10
2019-05-25T14:49:56.268Z,46.80
2019-05-25T14:52:26.008Z,46.90
2019-05-25T14:54:55.716Z,42.40
2019-05-25T14:57:25.425Z,42.50
2019-05-25T14:59:55.139Z,45.30
2019-05-25T15:02:24.845Z,45.50
2019-05-25T15:04:54.557Z,41.70
2019-05-25T15:07:24.268Z,44.50
2019-05-25T15:09:53.977Z,43.60
2019-05-25T15:12:25.410Z,41.80
2019-05-25T15:14:55.007Z,41.60
2019-05-25T15:17:24.746Z,42.50
2019-05-25T15:19:54.405Z,39.10
2019-05-25T15:22:24.167Z,39.00
2019-05-25T15:24:53.894Z,46.00
2019-05-25T15:27:23.585Z,45.80
2019-05-25T15:29:53.268Z,47.60
2019-05-25T15:32:23.005Z,47.80
2019-05-25T15:34:52.716Z,47.60
2019-05-25T15:37:22.428Z,47.20
2019-05-25T15:39:52.137Z,43.30
2019-05-25T15:42:21.957Z,42.90
2019-05-25T15:44:51.722Z,49.40
2019-05-25T15:47:21.474Z,50.40
2019-05-25T15:49:51.181Z,51.10
2019-05-25T15:52:21.861Z,47.90
2019-05-25T15:54:51.525Z,48.50
2019-05-25T15:57:21.232Z,45.50
2019-05-25T15:59:50.979Z,46.90
2019-05-25T16:02:41.339Z,46.40
2019-05-25T16:05:11.051Z,47.70
2019-05-25T16:07:45.147Z,49.10
2019-05-25T16:10:16.782Z,49.30
2019-05-25T16:12:46.137Z,48.70
2019-05-25T16:15:18.918Z,51.60
2019-05-25T16:17:48.703Z,48.70
2019-05-25T16:20:21.513Z,49.20
2019-05-25T16:22:51.225Z,49.30
2019-05-25T16:25:20.934Z,51.60
2019-05-25T16:27:50.644Z,52.30
2019-05-25T16:30:20.358Z,50.40
2019-05-25T16:35:21.414Z,55.40
2019-05-25T16:37:51.099Z,55.20
2019-05-25T16:40:20.936Z,53.60
2019-05-25T16:42:50.646Z,54.10
2019-05-25T16:45:20.328Z,56.90
2019-05-25T16:47:51.764Z,54.70
2019-05-25T16:50:21.418Z,54.30
2019-05-25T16:52:51.121Z,56.80
2019-05-25T16:55:20.808Z,56.80
2019-05-25T16:57:51.523Z,58.50
2019-05-25T17:00:31.011Z,59.60
2019-05-25T17:03:00.717Z,58.60
2019-05-25T17:05:30.427Z,59.20
2019-05-25T17:08:00.137Z,59.90
2019-05-25T17:10:30.770Z,64.40
2019-05-25T17:13:00.481Z,65.70
2019-05-25T17:15:30.191Z,66.50
2019-05-25T17:18:04.244Z,68.60
2019-05-25T17:20:31.124Z,70.40
2019-05-25T17:23:00.866Z,72.00
2019-05-25T17:25:30.571Z,74.90
2019-05-25T17:28:00.278Z,74.70
2019-05-25T17:30:41.938Z,73.90
2019-05-25T17:33:11.782Z,74.70
2019-05-25T17:35:41.567Z,78.80
2019-05-25T17:38:13.201Z,77.50
2019-05-25T17:40:42.551Z,79.30
2019-05-25T17:43:12.259Z,80.50
2019-05-25T17:45:41.969Z,78.80
2019-05-25T17:48:11.682Z,79.90
2019-05-25T17:50:41.392Z,78.70
2019-05-25T17:53:11.071Z,79.90
2019-05-25T17:55:40.811Z,80.40
2019-05-25T17:58:10.519Z,77.70
2019-05-25T18:00:41.744Z,79.40
2019-05-25T18:03:11.481Z,78.50
2019-05-25T18:05:41.162Z,78.50
2019-05-25T18:08:10.898Z,80.30
2019-05-25T18:10:51.813Z,81.00
2019-05-25T18:13:11.853Z,81.80
2019-05-25T18:15:41.563Z,82.20
2019-05-25T18:18:11.274Z,83.30
2019-05-25T18:20:40.957Z,82.10
2019-05-25T18:23:10.697Z,81.00
2019-05-25T18:25:40.403Z,83.20
2019-05-25T18:28:10.114Z,79.30
2019-05-25T18:30:39.832Z,81.00
2019-05-25T18:33:09.508Z,79.80
2019-05-25T18:35:39.244Z,80.70
2019-05-25T18:38:08.928Z,81.70
2019-05-25T18:40:39.625Z,80.80
2019-05-25T18:43:09.298Z,81.50
2019-05-25T18:45:38.985Z,81.70
2019-05-25T18:48:08.717Z,79.00
2019-05-25T18:50:38.435Z,77.50
2019-05-25T18:53:08.154Z,78.40
2019-05-25T18:55:37.819Z,77.80
2019-05-25T18:58:07.561Z,76.20
2019-05-25T19:00:37.240Z,77.30
2019-05-25T19:03:08.711Z,76.70
2019-05-25T19:05:38.326Z,74.80
2019-05-25T19:08:08.038Z,77.10
2019-05-25T19:10:37.746Z,77.10
2019-05-25T19:13:07.459Z,76.80
2019-05-25T19:15:37.148Z,75.50
2019-05-25T19:18:06.878Z,75.50
2019-05-25T19:20:36.587Z,75.80
2019-05-25T19:23:06.299Z,74.80
2019-05-25T19:25:36.008Z,74.40
2019-05-25T19:28:06.690Z,75.50
2019-05-25T19:30:37.335Z,77.30
2019-05-25T19:33:07.085Z,75.20
2019-05-25T19:35:36.768Z,76.70
2019-05-25T19:38:06.506Z,76.50
2019-05-25T19:40:36.187Z,77.50
2019-05-25T19:43:05.925Z,78.00
2019-05-25T19:45:35.533Z,78.40
2019-05-25T19:48:06.267Z,78.30
2019-05-25T19:50:35.978Z,78.70
2019-05-25T19:53:05.690Z,78.80
2019-05-25T19:55:35.397Z,79.30
2019-05-25T19:58:06.858Z,79.20
2019-05-25T20:00:36.663Z,79.10
2019-05-25T20:03:07.648Z,79.50
2019-05-25T20:05:37.414Z,79.10
2019-05-25T20:08:07.123Z,79.60
2019-05-25T20:10:36.833Z,79.40
2019-05-25T20:13:06.545Z,79.60
2019-05-25T20:15:36.261Z,78.90
2019-05-25T20:18:05.963Z,79.50
2019-05-25T20:20:35.676Z,79.50
2019-05-25T20:23:05.259Z,80.20
2019-05-25T20:25:34.967Z,79.50
2019-05-25T20:28:04.676Z,78.80
2019-05-25T20:30:36.124Z,77.50
2019-05-25T20:33:05.760Z,77.60
2019-05-25T20:35:37.286Z,77.30
2019-05-25T20:38:06.923Z,76.70
2019-05-25T20:40:36.633Z,78.40
2019-05-25T20:43:07.321Z,78.90
2019-05-25T20:45:37.076Z,78.50
2019-05-25T20:48:10.543Z,79.10
2019-05-25T20:50:38.135Z,78.50
2019-05-25T20:53:07.743Z,78.50
2019-05-25T20:55:37.452Z,78.40
2019-05-25T20:58:08.122Z,78.80
2019-05-25T21:00:37.793Z,79.20
2019-05-25T21:03:07.530Z,79.60
2019-05-25T21:05:49.967Z,80.00
2019-05-25T21:08:08.583Z,79.60
2019-05-25T21:10:38.274Z,80.60
2019-05-25T21:13:07.983Z,79.80
2019-05-25T21:15:38.722Z,80.30
2019-05-25T21:18:09.352Z,81.80
2019-05-25T21:20:39.061Z,81.10
2019-05-25T21:23:10.477Z,79.90
2019-05-25T21:25:40.224Z,80.20
2019-05-25T21:28:09.931Z,81.40
2019-05-25T21:30:39.642Z,80.60
2019-05-25T21:33:09.351Z,80.30
2019-05-25T21:35:39.061Z,80.50
2019-05-25T21:38:08.771Z,80.50
2019-05-25T21:40:38.481Z,80.80
2019-05-25T21:43:08.193Z,80.20
2019-05-25T21:45:37.800Z,80.20
2019-05-25T21:48:07.512Z,80.00
2019-05-25T21:50:37.219Z,79.80
2019-05-25T21:53:10.878Z,80.00
2019-05-25T21:55:38.180Z,80.20
2019-05-25T21:58:07.791Z,80.70
2019-05-25T22:00:39.047Z,80.70
2019-05-25T22:03:10.579Z,81.00
2019-05-25T22:05:40.191Z,81.00
2019-05-25T22:08:09.903Z,81.90
2019-05-25T22:10:39.526Z,81.60
2019-05-25T22:13:24.874Z,81.40
2019-05-25T22:15:40.513Z,81.40
2019-05-25T22:18:10.225Z,81.80
2019-05-25T22:20:39.829Z,80.80
2019-05-25T22:23:09.511Z,81.30
2019-05-25T22:25:39.265Z,81.20
2019-05-25T22:28:08.961Z,80.80
2019-05-25T22:30:38.644Z,80.50
2019-05-25T22:33:08.381Z,80.20
2019-05-25T22:35:38.091Z,79.70
2019-05-25T22:38:07.902Z,80.20
2019-05-25T22:40:37.613Z,79.90
2019-05-25T22:43:07.299Z,80.60
2019-05-25T22:45:37.034Z,80.50
2019-05-25T22:48:06.743Z,80.60
2019-05-25T22:50:36.455Z,79.80
2019-05-25T22:53:06.201Z,80.40
2019-05-25T22:55:36.154Z,79.10
2019-05-25T22:58:05.890Z,78.80
2019-05-25T23:00:35.604Z,78.30
2019-05-25T23:03:05.283Z,78.90
2019-05-25T23:05:35.023Z,79.10
2019-05-25T23:08:04.731Z,78.30
2019-05-25T23:10:34.441Z,78.80
2019-05-25T23:13:04.132Z,78.70
2019-05-25T23:15:33.862Z,79.30
2019-05-25T23:18:03.571Z,80.60
2019-05-25T23:20:36.547Z,80.30
2019-05-25T23:23:07.308Z,80.80
2019-05-25T23:25:37.004Z,82.00
2019-05-25T23:28:06.713Z,81.60
2019-05-25T23:30:36.422Z,82.10
2019-05-25T23:33:06.109Z,82.90
2019-05-25T23:35:35.844Z,82.30
2019-05-25T23:38:05.555Z,83.10
2019-05-25T23:40:35.271Z,82.90
2019-05-25T23:43:06.042Z,83.80
2019-05-25T23:45:35.811Z,85.10
2019-05-25T23:48:05.523Z,84.60
2019-05-25T23:50:35.231Z,84.70
2019-05-25T23:53:04.923Z,85.30
2019-05-25T23:55:34.652Z,86.10
2019-05-25T23:58:04.361Z,85.50
